createdAt,value
2023-05-12T00:00:44.894Z,114.82
2023-05-12T00:01:44.916Z,115.50
2023-05-12T00:02:45.061Z,113.53
2023-05-12T00:03:45.120Z,113.67
2023-05-12T00:04:45.090Z,113.73
2023-05-12T00:05:45.114Z,114.68
2023-05-12T00:06:45.148Z,113.44
2023-05-12T00:07:45.169Z,114.60
2023-05-12T00:08:45.237Z,112.91
2023-05-12T00:09:45.279Z,113.17
2023-05-12T00:10:45.356Z,113.61
2023-05-12T00:11:45.389Z,112.66
2023-05-12T00:12:45.436Z,113.61
2023-05-12T00:13:45.502Z,113.39
2023-05-12T00:14:45.545Z,113.41
2023-05-12T00:15:45.602Z,113.67
2023-05-12T00:16:45.686Z,113.24
2023-05-12T00:17:45.750Z,112.74
2023-05-12T00:18:45.854Z,112.93
2023-05-12T00:19:45.849Z,113.30
2023-05-12T00:20:45.885Z,112.66
2023-05-12T00:21:45.933Z,112.76
2023-05-12T00:22:45.988Z,113.84
2023-05-12T00:23:46.058Z,112.80
2023-05-12T00:24:46.109Z,112.89
2023-05-12T00:25:46.161Z,113.65
2023-05-12T00:26:46.242Z,113.57
2023-05-12T00:27:46.281Z,112.62
2023-05-12T00:28:46.345Z,110.88
2023-05-12T00:29:46.411Z,112.88
2023-05-12T00:30:46.469Z,112.74
2023-05-12T00:31:46.568Z,113.11
2023-05-12T00:32:46.646Z,112.15
2023-05-12T00:33:46.659Z,112.34
2023-05-12T00:34:46.701Z,113.18
2023-05-12T00:35:46.770Z,111.63
2023-05-12T00:36:46.833Z,111.53
2023-05-12T00:37:46.878Z,112.61
2023-05-12T00:38:46.950Z,112.24
2023-05-12T00:39:46.995Z,112.13
2023-05-12T00:40:47.055Z,111.29
2023-05-12T00:41:47.126Z,112.16
2023-05-12T00:42:47.195Z,112.33
2023-05-12T00:43:47.236Z,110.61
2023-05-12T00:44:47.298Z,110.96
2023-05-12T00:45:47.396Z,111.89
2023-05-12T00:46:47.404Z,111.17
2023-05-12T00:47:47.514Z,112.27
2023-05-12T00:48:47.529Z,110.50
2023-05-12T00:49:47.592Z,112.06
2023-05-12T00:50:47.667Z,111.43
2023-05-12T00:51:47.712Z,109.63
2023-05-12T00:52:47.812Z,110.99
2023-05-12T00:53:50.187Z,110.20
2023-05-12T00:54:47.826Z,109.91
2023-05-12T00:55:47.820Z,110.75
2023-05-12T00:56:47.818Z,110.42
2023-05-12T00:57:47.795Z,110.98
2023-05-12T00:58:47.797Z,110.90
2023-05-12T00:59:47.782Z,111.46
2023-05-12T01:00:47.852Z,110.18
2023-05-12T01:01:47.777Z,110.17
2023-05-12T01:02:47.841Z,110.48
2023-05-12T01:03:47.801Z,110.59
2023-05-12T01:04:47.760Z,109.90
2023-05-12T01:05:47.765Z,109.48
2023-05-12T01:06:47.738Z,108.42
2023-05-12T01:07:47.750Z,109.64
2023-05-12T01:08:47.733Z,109.03
2023-05-12T01:09:47.726Z,109.88
2023-05-12T01:10:47.715Z,109.20
2023-05-12T01:11:47.717Z,110.45
2023-05-12T01:12:47.715Z,109.62
2023-05-12T01:13:47.691Z,107.81
2023-05-12T01:14:47.684Z,110.01
2023-05-12T01:15:47.695Z,108.75
2023-05-12T01:16:47.720Z,108.39
2023-05-12T01:17:47.767Z,109.65
2023-05-12T01:18:47.660Z,110.27
2023-05-12T01:19:47.663Z,107.97
2023-05-12T01:20:47.699Z,108.72
2023-05-12T01:21:47.636Z,109.72
2023-05-12T01:22:47.634Z,109.30
2023-05-12T01:23:47.631Z,108.43
2023-05-12T01:24:47.627Z,109.01
2023-05-12T01:25:47.610Z,108.18
2023-05-12T01:26:47.608Z,109.01
2023-05-12T01:27:47.606Z,110.60
2023-05-12T01:28:47.602Z,108.82
2023-05-12T01:29:47.577Z,108.86
2023-05-12T01:30:47.602Z,109.40
2023-05-12T01:31:47.751Z,109.12
2023-05-12T01:32:47.753Z,108.34
2023-05-12T01:33:47.720Z,107.57
2023-05-12T01:34:47.768Z,108.72
2023-05-12T01:35:47.836Z,107.54
2023-05-12T01:36:47.893Z,108.41
2023-05-12T01:37:47.953Z,107.41
2023-05-12T01:38:48.020Z,109.01
2023-05-12T01:39:48.070Z,107.54
2023-05-12T01:40:48.145Z,106.05
2023-05-12T01:41:48.170Z,107.13
2023-05-12T01:42:48.233Z,107.61
2023-05-12T01:43:48.299Z,106.73
2023-05-12T01:44:48.360Z,105.54
2023-05-12T01:45:48.439Z,108.18
2023-05-12T01:46:48.582Z,107.05
2023-05-12T01:47:48.600Z,108.10
2023-05-12T01:48:48.596Z,107.38
2023-05-12T01:49:48.650Z,108.36
2023-05-12T01:50:48.741Z,107.46
2023-05-12T01:51:48.790Z,108.34
2023-05-12T01:52:48.850Z,106.63
2023-05-12T01:53:48.903Z,107.02
2023-05-12T01:54:48.949Z,106.45
2023-05-12T01:55:49.044Z,106.37
2023-05-12T01:56:49.076Z,108.43
2023-05-12T01:57:49.136Z,106.20
2023-05-12T01:58:49.233Z,107.52
2023-05-12T01:59:49.266Z,106.77
2023-05-12T02:00:49.314Z,108.17
2023-05-12T02:01:49.422Z,108.27
2023-05-12T02:02:49.508Z,107.39
2023-05-12T02:03:49.671Z,107.60
2023-05-12T02:04:49.567Z,106.63
2023-05-12T02:05:49.635Z,106.32
2023-05-12T02:06:49.692Z,107.49
2023-05-12T02:07:49.744Z,106.58
2023-05-12T02:08:49.808Z,105.48
2023-05-12T02:09:49.872Z,108.50
2023-05-12T02:10:49.924Z,107.15
2023-05-12T02:11:49.992Z,105.94
2023-05-12T02:12:50.059Z,107.24
2023-05-12T02:13:50.108Z,105.74
2023-05-12T02:14:50.174Z,108.65
2023-05-12T02:15:50.229Z,107.34
2023-05-12T02:16:50.434Z,106.44
2023-05-12T02:17:50.442Z,104.40
2023-05-12T02:18:50.444Z,106.39
2023-05-12T02:19:50.494Z,106.01
2023-05-12T02:20:50.544Z,106.63
2023-05-12T02:21:50.656Z,105.77
2023-05-12T02:22:50.683Z,105.53
2023-05-12T02:23:50.729Z,105.13
2023-05-12T02:24:50.793Z,106.45
2023-05-12T02:25:50.850Z,106.87
2023-05-12T02:26:50.899Z,106.14
2023-05-12T02:27:50.959Z,105.46
2023-05-12T02:28:51.032Z,105.37
2023-05-12T02:29:51.088Z,105.54
2023-05-12T02:30:51.157Z,106.54
2023-05-12T02:31:51.252Z,106.14
2023-05-12T02:32:51.276Z,107.49
2023-05-12T02:33:51.349Z,105.95
2023-05-12T02:34:51.410Z,107.13
2023-05-12T02:35:51.468Z,107.60
2023-05-12T02:36:51.526Z,108.63
2023-05-12T02:37:51.578Z,105.70
2023-05-12T02:38:51.652Z,108.22
2023-05-12T02:39:51.710Z,106.06
2023-05-12T02:40:51.766Z,105.17
2023-05-12T02:41:51.867Z,104.12
2023-05-12T02:42:51.890Z,105.82
2023-05-12T02:43:51.915Z,104.86
2023-05-12T02:44:51.981Z,106.13
2023-05-12T02:45:52.111Z,105.40
2023-05-12T02:46:52.093Z,105.31
2023-05-12T02:47:52.196Z,105.47
2023-05-12T02:48:52.186Z,104.52
2023-05-12T02:49:52.242Z,102.45
2023-05-12T02:50:52.334Z,103.76
2023-05-12T02:51:52.346Z,104.30
2023-05-12T02:52:52.398Z,101.07
2023-05-12T02:53:52.455Z,102.45
2023-05-12T02:54:52.510Z,102.81
2023-05-12T02:55:52.565Z,102.91
2023-05-12T02:56:52.618Z,104.60
2023-05-12T02:57:52.671Z,104.62
2023-05-12T02:58:52.721Z,105.96
2023-05-12T02:59:52.789Z,103.82
2023-05-12T03:01:03.063Z,105.44
2023-05-12T03:01:53.867Z,105.59
2023-05-12T03:02:52.868Z,105.73
2023-05-12T03:03:52.852Z,106.12
2023-05-12T03:04:52.799Z,104.93
2023-05-12T03:05:52.796Z,106.21
2023-05-12T03:06:52.821Z,106.17
2023-05-12T03:07:52.803Z,104.29
2023-05-12T03:08:52.779Z,105.10
2023-05-12T03:09:52.772Z,104.01
2023-05-12T03:10:52.767Z,106.59
2023-05-12T03:11:52.786Z,106.57
2023-05-12T03:12:52.843Z,106.37
2023-05-12T03:13:52.908Z,104.64
2023-05-12T03:14:52.973Z,105.54
2023-05-12T03:15:53.013Z,104.85
2023-05-12T03:16:53.238Z,103.67
2023-05-12T03:17:53.220Z,106.58
2023-05-12T03:18:53.200Z,105.79
2023-05-12T03:19:53.232Z,104.33
2023-05-12T03:20:53.301Z,106.60
2023-05-12T03:21:53.365Z,104.01
2023-05-12T03:22:53.417Z,104.81
2023-05-12T03:23:53.478Z,104.25
2023-05-12T03:24:53.535Z,105.23
2023-05-12T03:25:53.578Z,104.39
2023-05-12T03:26:53.648Z,105.74
2023-05-12T03:27:53.714Z,105.05
2023-05-12T03:28:53.773Z,106.39
2023-05-12T03:29:53.804Z,104.64
2023-05-12T03:30:53.866Z,106.84
2023-05-12T03:31:54.013Z,106.30
2023-05-12T03:32:54.070Z,106.43
2023-05-12T03:33:54.055Z,104.12
2023-05-12T03:34:54.103Z,107.00
2023-05-12T03:35:54.164Z,105.32
2023-05-12T03:36:54.228Z,104.57
2023-05-12T03:37:54.320Z,104.14
2023-05-12T03:38:54.343Z,106.70
2023-05-12T03:39:54.413Z,104.12
2023-05-12T03:40:54.455Z,106.57
2023-05-12T03:41:54.538Z,105.93
2023-05-12T03:42:54.569Z,105.34
2023-05-12T03:43:54.639Z,104.21
2023-05-12T03:44:54.688Z,105.43
2023-05-12T03:45:54.760Z,104.29
2023-05-12T03:46:54.850Z,104.35
2023-05-12T03:47:54.892Z,104.79
2023-05-12T03:48:54.901Z,103.27
2023-05-12T03:49:54.966Z,103.57
2023-05-12T03:50:55.022Z,103.79
2023-05-12T03:51:55.091Z,105.02
2023-05-12T03:52:55.162Z,105.11
2023-05-12T03:53:55.203Z,105.17
2023-05-12T03:54:55.262Z,105.37
2023-05-12T03:55:55.320Z,102.78
2023-05-12T03:56:55.378Z,104.35
2023-05-12T03:57:55.430Z,104.48
2023-05-12T03:58:55.499Z,105.07
2023-05-12T03:59:55.558Z,104.88
2023-05-12T04:00:55.612Z,105.89
2023-05-12T04:01:55.827Z,103.96
2023-05-12T04:02:55.852Z,103.52
2023-05-12T04:03:55.860Z,102.63
2023-05-12T04:04:55.862Z,104.23
2023-05-12T04:05:55.922Z,105.42
2023-05-12T04:06:55.989Z,105.28
2023-05-12T04:07:56.042Z,103.33
2023-05-12T04:08:56.113Z,103.53
2023-05-12T04:09:56.174Z,105.27
2023-05-12T04:10:56.229Z,105.24
2023-05-12T04:11:56.294Z,104.19
2023-05-12T04:12:56.359Z,103.25
2023-05-12T04:13:56.428Z,102.01
2023-05-12T04:14:56.479Z,104.41
2023-05-12T04:15:56.526Z,102.36
2023-05-12T04:16:56.609Z,102.83
2023-05-12T04:17:56.722Z,103.12
2023-05-12T04:18:56.777Z,104.47
2023-05-12T04:19:56.772Z,102.84
2023-05-12T04:20:56.823Z,105.49
2023-05-12T04:21:56.891Z,105.20
2023-05-12T04:22:56.947Z,102.86
2023-05-12T04:23:57.014Z,102.86
2023-05-12T04:24:57.068Z,102.41
2023-05-12T04:25:57.134Z,104.22
2023-05-12T04:26:57.207Z,101.69
2023-05-12T04:27:57.272Z,105.12
2023-05-12T04:28:57.325Z,103.88
2023-05-12T04:29:57.406Z,102.50
2023-05-12T04:30:57.444Z,104.19
2023-05-12T04:31:57.570Z,100.74
2023-05-12T04:32:57.615Z,103.53
2023-05-12T04:33:57.638Z,103.25
2023-05-12T04:34:57.701Z,103.17
2023-05-12T04:35:57.808Z,103.36
2023-05-12T04:36:57.857Z,101.43
2023-05-12T04:37:57.904Z,102.58
2023-05-12T04:38:57.971Z,103.26
2023-05-12T04:39:58.032Z,102.96
2023-05-12T04:40:58.081Z,104.33
2023-05-12T04:41:58.141Z,103.81
2023-05-12T04:42:58.320Z,103.82
2023-05-12T04:44:00.688Z,104.02
2023-05-12T04:44:58.506Z,105.25
2023-05-12T04:46:00.062Z,103.77
2023-05-12T04:46:58.589Z,104.44
2023-05-12T04:47:58.718Z,103.67
2023-05-12T04:48:58.718Z,103.28
2023-05-12T04:49:58.806Z,101.93
2023-05-12T04:50:58.823Z,101.93
2023-05-12T04:51:58.951Z,102.82
2023-05-12T04:52:58.962Z,101.05
2023-05-12T04:53:59.011Z,102.82
2023-05-12T04:54:59.079Z,103.13
2023-05-12T04:55:59.129Z,101.35
2023-05-12T04:56:59.199Z,102.38
2023-05-12T04:57:59.272Z,101.43
2023-05-12T04:58:59.312Z,101.43
2023-05-12T04:59:59.415Z,99.76
2023-05-12T05:00:59.500Z,103.10
2023-05-12T05:01:59.510Z,101.45
2023-05-12T05:02:59.647Z,104.11
2023-05-12T05:03:59.780Z,100.96
2023-05-12T05:04:59.694Z,101.09
2023-05-12T05:05:59.768Z,103.47
2023-05-12T05:06:59.905Z,103.63
2023-05-12T05:07:59.859Z,100.70
2023-05-12T05:08:59.902Z,101.65
2023-05-12T05:09:59.945Z,99.85
2023-05-12T05:10:59.990Z,100.01
2023-05-12T05:12:00.034Z,102.03
2023-05-12T05:13:00.127Z,100.65
2023-05-12T05:14:00.150Z,101.48
2023-05-12T05:15:00.163Z,98.76
2023-05-12T05:16:00.291Z,99.33
2023-05-12T05:17:00.254Z,99.00
2023-05-12T05:18:01.931Z,97.91
2023-05-12T05:19:02.054Z,99.69
2023-05-12T05:20:01.434Z,99.81
2023-05-12T05:21:01.420Z,99.98
2023-05-12T05:22:00.308Z,100.41
2023-05-12T05:23:00.303Z,100.52
2023-05-12T05:24:00.289Z,101.18
2023-05-12T05:25:00.278Z,102.59
2023-05-12T05:26:00.266Z,100.89
2023-05-12T05:27:00.293Z,100.90
2023-05-12T05:28:00.253Z,100.03
2023-05-12T05:29:00.251Z,99.42
2023-05-12T05:30:00.285Z,98.42
2023-05-12T05:31:00.284Z,98.81
2023-05-12T05:32:00.523Z,97.43
2023-05-12T05:33:00.557Z,94.74
2023-05-12T05:34:00.219Z,96.42
2023-05-12T05:35:00.199Z,95.28
2023-05-12T05:36:00.227Z,95.44
2023-05-12T05:37:00.197Z,97.59
2023-05-12T05:38:00.194Z,96.02
2023-05-12T05:39:00.188Z,99.63
2023-05-12T05:40:00.218Z,101.70
2023-05-12T05:41:00.165Z,104.46
2023-05-12T05:42:00.178Z,109.19
2023-05-12T05:43:00.152Z,104.33
2023-05-12T05:44:00.173Z,108.98
2023-05-12T05:45:00.156Z,114.59
2023-05-12T05:46:00.164Z,117.32
2023-05-12T05:47:00.214Z,123.55
2023-05-12T05:48:00.344Z,128.52
2023-05-12T05:49:00.249Z,131.92
2023-05-12T05:50:00.274Z,131.67
2023-05-12T05:51:00.382Z,136.69
2023-05-12T05:52:00.380Z,139.11
2023-05-12T05:53:00.383Z,140.53
2023-05-12T05:54:00.422Z,140.95
2023-05-12T05:55:00.467Z,141.36
2023-05-12T05:56:00.502Z,140.90
2023-05-12T05:57:00.562Z,141.40
2023-05-12T05:58:00.617Z,142.94
2023-05-12T05:59:00.648Z,144.11
2023-05-12T06:00:00.679Z,145.23
2023-05-12T06:01:00.732Z,146.24
2023-05-12T06:02:00.807Z,146.16
2023-05-12T06:03:01.135Z,149.36
2023-05-12T06:04:00.963Z,148.05
2023-05-12T06:05:00.895Z,150.11
2023-05-12T06:06:00.984Z,149.32
2023-05-12T06:07:00.985Z,148.32
2023-05-12T06:08:01.052Z,149.07
2023-05-12T06:09:01.092Z,149.27
2023-05-12T06:10:01.136Z,150.25
2023-05-12T06:11:01.207Z,150.14
2023-05-12T06:12:01.276Z,150.26
2023-05-12T06:13:01.532Z,151.24
2023-05-12T06:14:01.336Z,148.62
2023-05-12T06:15:01.397Z,149.27
2023-05-12T06:16:01.443Z,149.56
2023-05-12T06:17:01.498Z,147.55
2023-05-12T06:18:01.584Z,147.94
2023-05-12T06:19:01.615Z,149.27
2023-05-12T06:20:01.619Z,148.05
2023-05-12T06:21:01.683Z,148.42
2023-05-12T06:22:01.704Z,148.34
2023-05-12T06:23:01.759Z,147.92
2023-05-12T06:24:01.799Z,149.82
2023-05-12T06:25:01.850Z,151.47
2023-05-12T06:26:01.921Z,148.80
2023-05-12T06:27:01.934Z,147.69
2023-05-12T06:28:01.982Z,148.47
2023-05-12T06:29:02.101Z,148.81
2023-05-12T06:30:02.083Z,149.49
2023-05-12T06:31:02.151Z,149.80
2023-05-12T06:32:02.241Z,151.97
2023-05-12T06:33:02.281Z,151.91
2023-05-12T06:34:02.281Z,149.27
2023-05-12T06:35:02.365Z,149.29
2023-05-12T06:36:02.402Z,149.61
2023-05-12T06:37:02.417Z,148.55
2023-05-12T06:38:02.467Z,150.29
2023-05-12T06:39:02.509Z,155.46
2023-05-12T06:40:02.570Z,175.40
2023-05-12T06:41:02.592Z,168.51
2023-05-12T06:42:02.631Z,184.31
2023-05-12T06:43:02.648Z,184.74
2023-05-12T06:44:02.661Z,188.97
2023-05-12T06:45:02.707Z,203.09
2023-05-12T06:46:02.728Z,198.44
2023-05-12T06:47:02.686Z,210.60
2023-05-12T06:48:02.726Z,215.13
2023-05-12T06:49:02.671Z,222.95
2023-05-12T06:50:02.699Z,221.90
2023-05-12T06:51:02.742Z,227.40
2023-05-12T06:52:02.809Z,238.07
2023-05-12T06:53:02.882Z,247.20
2023-05-12T06:54:02.916Z,248.67
2023-05-12T06:55:03.006Z,250.09
2023-05-12T06:56:03.023Z,248.03
2023-05-12T06:57:03.085Z,243.51
2023-05-12T06:58:03.162Z,251.66
2023-05-12T06:59:03.157Z,248.73
2023-05-12T07:00:03.209Z,243.47
2023-05-12T07:01:03.284Z,250.18
2023-05-12T07:02:03.347Z,246.51
2023-05-12T07:03:03.342Z,248.26
2023-05-12T07:04:03.422Z,246.97
2023-05-12T07:05:03.402Z,243.50
2023-05-12T07:06:03.544Z,246.76
2023-05-12T07:07:03.467Z,248.00
2023-05-12T07:08:03.490Z,245.41
2023-05-12T07:09:03.510Z,248.56
2023-05-12T07:10:03.542Z,250.00
2023-05-12T07:11:03.552Z,250.09
2023-05-12T07:12:03.581Z,249.12
2023-05-12T07:13:03.616Z,249.53
2023-05-12T07:14:03.653Z,243.16
2023-05-12T07:15:03.659Z,215.41
2023-05-12T07:16:03.716Z,184.12
2023-05-12T07:17:03.706Z,152.66
2023-05-12T07:18:03.840Z,136.83
2023-05-12T07:19:03.866Z,128.62
2023-05-12T07:20:03.854Z,109.76
2023-05-12T07:21:03.857Z,94.86
2023-05-12T07:22:03.842Z,78.70
2023-05-12T07:23:03.897Z,73.36
2023-05-12T07:24:03.866Z,73.54
2023-05-12T07:25:03.905Z,60.97
2023-05-12T07:26:03.902Z,56.68
2023-05-12T07:27:03.931Z,51.58
2023-05-12T07:28:03.972Z,45.81
2023-05-12T07:29:03.994Z,40.98
2023-05-12T07:30:04.009Z,34.86
2023-05-12T07:31:04.142Z,30.30
2023-05-12T07:32:04.088Z,37.43
2023-05-12T07:33:04.124Z,44.45
2023-05-12T07:34:04.119Z,64.70
2023-05-12T07:35:04.153Z,87.39
2023-05-12T07:36:04.157Z,98.91
2023-05-12T07:37:04.127Z,102.69
2023-05-12T07:38:04.200Z,105.59
2023-05-12T07:39:04.171Z,106.62
2023-05-12T07:40:04.165Z,109.54
2023-05-12T07:41:04.190Z,111.46
2023-05-12T07:42:04.208Z,106.10
2023-05-12T07:43:04.261Z,105.92
2023-05-12T07:44:04.269Z,100.98
2023-05-12T07:45:04.317Z,96.86
2023-05-12T07:46:04.324Z,102.96
2023-05-12T07:47:04.405Z,104.90
2023-05-12T07:48:04.471Z,110.98
2023-05-12T07:49:04.466Z,107.05
2023-05-12T07:50:04.726Z,107.31
2023-05-12T07:51:04.552Z,107.23
2023-05-12T07:52:04.609Z,109.97
2023-05-12T07:53:04.692Z,92.94
2023-05-12T07:54:04.736Z,102.18
2023-05-12T07:55:04.775Z,90.30
2023-05-12T07:56:04.839Z,97.25
2023-05-12T07:57:04.952Z,97.36
2023-05-12T07:58:04.932Z,94.51
2023-05-12T07:59:04.981Z,94.55
2023-05-12T08:00:05.018Z,98.51
2023-05-12T08:01:05.069Z,98.13
2023-05-12T08:02:05.136Z,105.90
2023-05-12T08:03:05.236Z,102.17
2023-05-12T08:04:05.270Z,101.04
2023-05-12T08:05:05.233Z,104.89
2023-05-12T08:06:05.274Z,100.23
2023-05-12T08:07:05.328Z,89.54
2023-05-12T08:08:05.359Z,98.52
2023-05-12T08:09:05.442Z,92.48
2023-05-12T08:10:05.451Z,91.14
2023-05-12T08:11:05.504Z,85.85
2023-05-12T08:12:05.558Z,78.82
2023-05-12T08:13:05.643Z,82.52
2023-05-12T08:14:05.664Z,83.95
2023-05-12T08:15:05.700Z,79.80
2023-05-12T08:16:05.755Z,77.57
2023-05-12T08:17:05.859Z,79.77
2023-05-12T08:18:05.917Z,88.82
2023-05-12T08:19:05.995Z,89.61
2023-05-12T08:20:06.000Z,95.69
2023-05-12T08:21:06.026Z,95.45
2023-05-12T08:22:06.076Z,94.20
2023-05-12T08:23:06.137Z,95.26
2023-05-12T08:24:06.201Z,100.76
2023-05-12T08:25:06.240Z,101.87
2023-05-12T08:26:06.303Z,96.55
2023-05-12T08:27:06.366Z,91.39
2023-05-12T08:28:06.430Z,87.92
2023-05-12T08:29:06.460Z,82.38
2023-05-12T08:30:06.522Z,72.48
2023-05-12T08:31:06.595Z,73.77
2023-05-12T08:32:06.610Z,73.05
2023-05-12T08:33:06.719Z,66.05
2023-05-12T08:34:10.537Z,66.03
2023-05-12T08:35:06.596Z,62.56
2023-05-12T08:36:06.584Z,55.36
2023-05-12T08:37:06.585Z,57.30
2023-05-12T08:38:06.574Z,50.38
2023-05-12T08:39:06.557Z,43.56
2023-05-12T08:40:06.558Z,44.71
2023-05-12T08:41:06.561Z,39.24
2023-05-12T08:42:06.556Z,36.47
2023-05-12T08:43:06.560Z,38.48
2023-05-12T08:44:06.544Z,55.90
2023-05-12T08:45:06.523Z,78.09
2023-05-12T08:46:06.561Z,80.01
2023-05-12T08:47:06.505Z,82.84
2023-05-12T08:48:06.693Z,89.61
2023-05-12T08:49:06.502Z,90.35
2023-05-12T08:50:06.507Z,92.01
2023-05-12T08:51:06.486Z,100.06
2023-05-12T08:52:06.473Z,96.50
2023-05-12T08:53:07.088Z,98.61
2023-05-12T08:54:06.586Z,102.61
2023-05-12T08:55:06.451Z,103.32
2023-05-12T08:57:09.534Z,101.10
2023-05-12T08:58:07.165Z,101.59
2023-05-12T08:59:06.567Z,103.26
2023-05-12T09:00:06.431Z,106.26
2023-05-12T09:01:06.472Z,111.00
2023-05-12T09:02:06.450Z,156.38
2023-05-12T09:03:06.402Z,136.06
2023-05-12T09:04:06.460Z,123.02
2023-05-12T09:05:06.389Z,121.05
2023-05-12T09:06:06.412Z,118.32
2023-05-12T09:07:06.364Z,117.13
2023-05-12T09:08:06.386Z,118.36
2023-05-12T09:09:06.382Z,124.01
2023-05-12T09:10:06.390Z,125.55
2023-05-12T09:11:06.428Z,123.07
2023-05-12T09:12:06.424Z,123.42
2023-05-12T09:13:06.452Z,124.70
2023-05-12T09:14:06.511Z,124.84
2023-05-12T09:15:06.546Z,125.68
2023-05-12T09:16:06.562Z,123.94
2023-05-12T09:17:06.508Z,125.07
2023-05-12T09:18:06.578Z,125.25
2023-05-12T09:19:07.174Z,123.95
2023-05-12T09:20:06.543Z,122.68
2023-05-12T09:21:06.547Z,99.89
2023-05-12T09:22:06.584Z,80.88
2023-05-12T09:23:06.646Z,70.24
2023-05-12T09:24:06.855Z,61.07
2023-05-12T09:25:06.683Z,49.83
2023-05-12T09:26:06.807Z,44.19
2023-05-12T09:27:06.748Z,33.81
2023-05-12T09:28:06.792Z,28.21
2023-05-12T09:29:06.883Z,28.75
2023-05-12T09:30:06.910Z,25.21
2023-05-12T09:31:07.082Z,25.19
2023-05-12T09:32:07.073Z,34.13
2023-05-12T09:33:07.143Z,25.87
2023-05-12T09:34:07.105Z,0.00
2023-05-12T09:35:07.163Z,0.00
2023-05-12T09:36:07.186Z,17.93
2023-05-12T09:37:07.188Z,21.09
2023-05-12T09:38:07.187Z,25.10
2023-05-12T09:39:07.602Z,28.15
2023-05-12T09:40:07.184Z,35.49
2023-05-12T09:41:07.237Z,41.66
2023-05-12T09:42:07.300Z,50.65
2023-05-12T09:43:07.316Z,55.96
2023-05-12T09:44:07.340Z,50.93
2023-05-12T09:45:07.360Z,59.62
2023-05-12T09:46:07.403Z,61.29
2023-05-12T09:47:07.540Z,62.80
2023-05-12T09:48:07.477Z,50.91
2023-05-12T09:49:07.359Z,46.54
2023-05-12T09:50:07.368Z,53.00
2023-05-12T09:51:07.409Z,57.28
2023-05-12T09:52:07.467Z,62.14
2023-05-12T09:53:07.534Z,63.15
2023-05-12T09:54:08.018Z,69.36
2023-05-12T09:55:07.644Z,68.13
2023-05-12T09:56:07.762Z,72.36
2023-05-12T09:57:07.754Z,68.01
2023-05-12T09:58:07.792Z,68.75
2023-05-12T09:59:07.853Z,76.14
2023-05-12T10:00:16.611Z,84.20
2023-05-12T10:02:08.009Z,81.35
2023-05-12T10:03:08.128Z,72.43
2023-05-12T10:04:08.027Z,69.59
2023-05-12T10:05:08.133Z,69.56
2023-05-12T10:06:08.181Z,71.17
2023-05-12T10:07:08.089Z,71.03
2023-05-12T10:08:08.149Z,72.43
2023-05-12T10:09:08.188Z,71.98
2023-05-12T10:10:08.247Z,68.69
2023-05-12T10:11:08.257Z,66.72
2023-05-12T10:12:08.300Z,63.88
2023-05-12T10:13:08.343Z,64.62
2023-05-12T10:14:08.398Z,72.84
2023-05-12T10:15:08.506Z,71.77
2023-05-12T10:16:08.473Z,73.33
2023-05-12T10:17:08.564Z,72.02
2023-05-12T10:18:08.597Z,68.09
2023-05-12T10:19:08.619Z,66.15
2023-05-12T10:20:08.647Z,65.64
2023-05-12T10:21:08.708Z,63.14
2023-05-12T10:22:08.735Z,68.00
2023-05-12T10:23:08.762Z,71.02
2023-05-12T10:24:08.824Z,70.82
2023-05-12T10:25:08.889Z,73.13
2023-05-12T10:26:08.855Z,71.80
2023-05-12T10:27:08.876Z,81.87
2023-05-12T10:28:08.904Z,98.26
2023-05-12T10:29:09.162Z,116.68
2023-05-12T10:30:08.977Z,121.24
2023-05-12T10:31:09.051Z,125.28
2023-05-12T10:32:09.078Z,126.51
2023-05-12T10:33:09.079Z,110.85
2023-05-12T10:34:09.099Z,69.30
2023-05-12T10:35:09.278Z,65.64
2023-05-12T10:36:09.186Z,80.54
2023-05-12T10:37:09.287Z,89.86
2023-05-12T10:38:09.303Z,99.22
2023-05-12T10:39:09.402Z,104.19
2023-05-12T10:40:09.623Z,112.92
2023-05-12T10:41:09.463Z,119.63
2023-05-12T10:42:09.533Z,125.09
2023-05-12T10:43:09.539Z,131.59
2023-05-12T10:44:09.593Z,135.72
2023-05-12T10:45:09.595Z,139.65
2023-05-12T10:46:09.760Z,144.45
2023-05-12T10:47:11.076Z,147.54
2023-05-12T10:48:09.704Z,152.94
2023-05-12T10:49:09.627Z,155.99
2023-05-12T10:50:09.656Z,159.37
2023-05-12T10:51:09.742Z,162.05
2023-05-12T10:52:09.625Z,163.29
2023-05-12T10:53:10.572Z,167.22
2023-05-12T10:54:09.635Z,169.60
2023-05-12T10:55:09.680Z,170.45
2023-05-12T10:56:09.937Z,174.71
2023-05-12T10:57:09.906Z,177.53
2023-05-12T10:58:09.956Z,183.10
2023-05-12T10:59:10.235Z,185.48
2023-05-12T11:00:09.845Z,189.25
2023-05-12T11:01:10.205Z,191.08
2023-05-12T11:02:10.410Z,194.98
2023-05-12T11:03:10.438Z,197.27
2023-05-12T11:04:09.844Z,202.50
2023-05-12T11:05:10.198Z,204.94
2023-05-12T11:06:10.446Z,211.05
2023-05-12T11:07:09.986Z,212.33
2023-05-12T11:08:09.936Z,213.51
2023-05-12T11:09:11.038Z,217.40
2023-05-12T11:10:10.629Z,220.19
2023-05-12T11:11:11.012Z,221.93
2023-05-12T11:12:10.022Z,224.30
2023-05-12T11:13:10.081Z,229.77
2023-05-12T11:14:10.446Z,231.49
2023-05-12T11:15:11.135Z,231.81
2023-05-12T11:16:10.305Z,234.25
2023-05-12T11:17:10.319Z,232.26
2023-05-12T11:18:10.417Z,235.84
2023-05-12T11:19:10.544Z,238.36
2023-05-12T11:20:10.497Z,239.71
2023-05-12T11:21:10.540Z,239.92
2023-05-12T11:22:10.588Z,238.79
2023-05-12T11:23:10.574Z,238.89
2023-05-12T11:24:13.158Z,240.55
2023-05-12T11:25:10.755Z,239.54
2023-05-12T11:26:10.710Z,240.99
2023-05-12T11:27:10.706Z,239.87
2023-05-12T11:28:10.706Z,239.29
2023-05-12T11:29:10.704Z,239.41
2023-05-12T11:30:10.715Z,238.35
2023-05-12T11:31:10.702Z,237.76
2023-05-12T11:32:10.734Z,238.13
2023-05-12T11:33:10.744Z,237.01
2023-05-12T11:34:12.770Z,237.10
2023-05-12T11:35:10.704Z,237.39
2023-05-12T11:36:10.694Z,235.57
2023-05-12T11:37:10.712Z,235.26
2023-05-12T11:38:10.677Z,236.85
2023-05-12T11:39:10.727Z,235.67
2023-05-12T11:40:10.675Z,234.74
2023-05-12T11:41:10.653Z,233.21
2023-05-12T11:42:13.523Z,233.59
2023-05-12T11:43:10.665Z,233.73
2023-05-12T11:44:10.640Z,233.81
2023-05-12T11:45:10.628Z,233.81
2023-05-12T11:46:10.659Z,233.74
2023-05-12T11:47:10.620Z,231.56
2023-05-12T11:48:10.661Z,231.74
2023-05-12T11:49:10.598Z,232.63
2023-05-12T11:50:10.619Z,231.49
2023-05-12T11:51:10.582Z,231.58
2023-05-12T11:52:10.580Z,232.33
2023-05-12T11:53:10.565Z,229.94
2023-05-12T11:54:10.553Z,228.64
2023-05-12T11:55:10.584Z,229.51
2023-05-12T11:56:10.553Z,228.32
2023-05-12T11:57:10.540Z,229.47
2023-05-12T11:58:10.527Z,226.06
2023-05-12T11:59:10.531Z,228.58
2023-05-12T12:00:10.512Z,224.42
2023-05-12T12:01:10.510Z,225.46
2023-05-12T12:02:10.519Z,224.25
2023-05-12T12:03:10.748Z,226.32
2023-05-12T12:04:10.582Z,226.41
2023-05-12T12:05:10.529Z,222.38
2023-05-12T12:06:10.477Z,226.98
2023-05-12T12:07:10.485Z,225.42
2023-05-12T12:08:10.473Z,227.70
2023-05-12T12:09:10.479Z,223.83
2023-05-12T12:10:10.474Z,225.33
2023-05-12T12:11:10.472Z,223.62
2023-05-12T12:12:10.431Z,223.91
2023-05-12T12:13:10.425Z,224.82
2023-05-12T12:14:10.444Z,222.54
2023-05-12T12:15:10.431Z,220.75
2023-05-12T12:16:12.309Z,221.71
2023-05-12T12:17:10.398Z,221.62
2023-05-12T12:18:10.419Z,221.23
2023-05-12T12:19:10.483Z,221.45
2023-05-12T12:20:10.390Z,217.08
2023-05-12T12:21:10.369Z,222.44
2023-05-12T12:22:10.369Z,219.94
2023-05-12T12:23:10.355Z,217.19
2023-05-12T12:24:10.348Z,219.49
2023-05-12T12:25:10.349Z,218.55
2023-05-12T12:26:10.336Z,219.51
2023-05-12T12:27:10.409Z,218.49
2023-05-12T12:28:10.318Z,217.79
2023-05-12T12:29:10.313Z,216.17
2023-05-12T12:30:10.358Z,214.68
2023-05-12T12:31:10.312Z,215.05
2023-05-12T12:32:10.293Z,219.09
2023-05-12T12:33:10.392Z,213.90
2023-05-12T12:34:10.277Z,214.98
2023-05-12T12:35:10.275Z,214.29
2023-05-12T12:36:10.256Z,212.38